Time;durP1;ratioP1;P1;durP2;ratioP2;P2;SDS_P1;SDS_P2;PMS_P1;PMS_P2;Temp;Humidity;BMP_temperature;BMP_pressure;BME280_temperature;BME280_humidity;BME280_pressure;Samples;Min_cycle;Max_cycle;Signal;HPM_P1;HPM_P2
2022/01/25 00:15:18;;;;;;;;;;;15.50;48.30;;;;;;5091449;28;20331;-64
2022/01/25 00:26:16;;;;;;;;;;;15.50;48.30;;;;;;5094028;28;19915;-64
2022/01/25 00:28:48;;;;;;;;;;;15.50;48.30;;;;;;5103164;28;19911;-64
2022/01/25 00:31:14;;;;;;;;;;;15.50;48.30;;;;;;5096429;28;20360;-64
2022/01/25 00:33:47;;;;;;;;;;;15.50;48.30;;;;;;5096114;28;19943;-63
2022/01/25 00:36:13;;;;;;;;;;;15.40;48.20;;;;;;5094908;28;19998;-63
2022/01/25 00:38:39;;;;;;;;;;;15.50;48.30;;;;;;5094482;28;20395;-64
2022/01/25 00:41:04;;;;;;;;;;;15.50;48.20;;;;;;5094947;28;19913;-64
2022/01/25 00:43:30;;;;;;;;;;;15.50;48.20;;;;;;5095978;28;19916;-64
2022/01/25 00:45:59;;;;;;;;;;;15.50;48.20;;;;;;5096017;28;19961;-64
2022/01/25 00:49:01;;;;;;;;;;;15.50;48.20;;;;;;5096146;28;19912;-63
2022/01/25 00:53:55;;;;;;;;;;;15.40;48.20;;;;;;5095949;28;19935;-63
2022/01/25 00:56:21;;;;;;;;;;;15.40;48.20;;;;;;5094647;28;20398;-63
2022/01/25 00:58:46;;;;;;;;;;;15.40;48.30;;;;;;5094320;28;19908;-63
2022/01/25 01:01:12;;;;;;;;;;;15.40;48.30;;;;;;5094585;28;19912;-63
2022/01/25 01:03:37;;;;;;;;;;;15.40;48.30;;;;;;5094301;28;19962;-64
2022/01/25 01:06:05;;;;;;;;;;;15.40;48.30;;;;;;5094386;28;19931;-63
2022/01/25 01:08:31;;;;;;;;;;;15.40;48.20;;;;;;5094008;28;19908;-63
2022/01/25 01:10:58;;;;;;;;;;;15.40;48.20;;;;;;5095440;28;19908;-63
2022/01/25 01:16:43;;;;;;;;;;;15.40;48.30;;;;;;5095441;28;19918;-63
2022/01/25 01:30:13;;;;;;;;;;;15.30;48.30;;;;;;5095160;28;20317;-64
2022/01/25 01:38:19;;;;;;;;;;;15.30;48.40;;;;;;5100332;28;19962;-64
2022/01/25 01:48:09;;;;;;;;;;;15.30;47.70;;;;;;5095329;28;19909;-64
2022/01/25 01:50:36;;;;;;;;;;;15.30;48.30;;;;;;5094453;28;19912;-64
2022/01/25 01:53:03;;;;;;;;;;;15.30;48.30;;;;;;5095068;28;19915;-64
2022/01/25 01:55:28;;;;;;;;;;;15.30;48.40;;;;;;5092832;28;20368;-64
2022/01/25 01:57:54;;;;;;;;;;;15.30;48.30;;;;;;5093387;28;19928;-64
2022/01/25 02:00:20;;;;;;;;;;;15.30;48.30;;;;;;5094577;28;19916;-64
2022/01/25 02:02:46;;;;;;;;;;;15.20;48.30;;;;;;5093275;28;19909;-64
2022/01/25 02:05:11;;;;;;;;;;;15.30;48.40;;;;;;5094333;28;19916;-64
2022/01/25 02:07:37;;;;;;;;;;;15.20;48.30;;;;;;5093257;28;19999;-64
2022/01/25 02:10:03;;;;;;;;;;;15.20;48.30;;;;;;5092802;28;20296;-64
2022/01/25 02:12:28;;;;;;;;;;;15.20;48.30;;;;;;5094661;28;19961;-64
2022/01/25 02:14:55;;;;;;;;;;;15.20;48.30;;;;;;5094467;28;19916;-63
2022/01/25 02:17:52;;;;;;;;;;;15.20;48.30;;;;;;5094389;28;19918;-63
2022/01/25 02:23:13;;;;;;;;;;;15.20;48.30;;;;;;5093188;28;19916;-63
2022/01/25 02:25:38;;;;;;;;;;;15.20;48.30;;;;;;5092422;28;19915;-63
2022/01/25 02:28:04;;;;;;;;;;;15.20;48.30;;;;;;5092914;28;19916;-63
2022/01/25 02:30:29;;;;;;;;;;;15.30;48.30;;;;;;5093933;28;19912;-63
2022/01/25 02:32:55;;;;;;;;;;;15.40;48.10;;;;;;5126847;27;20360;-63
2022/01/25 02:35:20;;;;;;;;;;;15.60;47.90;;;;;;5092513;28;20315;-63
2022/01/25 02:37:45;;;;;;;;;;;15.70;47.60;;;;;;5126749;27;19963;-63
2022/01/25 02:40:11;;;;;;;;;;;15.80;47.40;;;;;;5093385;28;19912;-63
2022/01/25 02:42:36;;;;;;;;;;;15.90;47.20;;;;;;5093832;28;19912;-64
2022/01/25 02:45:02;;;;;;;;;;;16.00;47.10;;;;;;5093805;28;19995;-64
2022/01/25 02:50:12;;;;;;;;;;;16.20;46.70;;;;;;5092276;28;19915;-64
2022/01/25 02:52:37;;;;;;;;;;;16.30;46.60;;;;;;5092452;28;19908;-64
2022/01/25 02:55:03;;;;;;;;;;;16.30;46.40;;;;;;5091863;28;20356;-64
2022/01/25 02:57:28;;;;;;;;;;;16.40;46.20;;;;;;5093470;28;19908;-64
2022/01/25 02:59:54;;;;;;;;;;;16.40;46.00;;;;;;5093409;28;20010;-64
2022/01/25 03:02:19;;;;;;;;;;;16.50;46.10;;;;;;5093361;28;19957;-64
2022/01/25 03:04:45;;;;;;;;;;;16.50;46.00;;;;;;5092022;28;20364;-64
2022/01/25 03:07:10;;;;;;;;;;;16.50;45.90;;;;;;5126087;27;19908;-64
2022/01/25 03:09:36;;;;;;;;;;;16.50;45.80;;;;;;5092885;28;19912;-64
2022/01/25 03:12:05;;;;;;;;;;;16.50;45.80;;;;;;5092199;28;19908;-64
2022/01/25 03:14:33;;;;;;;;;;;16.50;45.80;;;;;;5093067;28;20004;-64
2022/01/25 03:22:01;;;;;;;;;;;16.60;45.70;;;;;;5093631;28;19969;-64
2022/01/25 03:24:26;;;;;;;;;;;16.60;45.60;;;;;;5091466;28;19909;-63
2022/01/25 03:26:52;;;;;;;;;;;16.60;45.50;;;;;;5091820;28;20292;-63
2022/01/25 03:29:17;;;;;;;;;;;16.60;45.50;;;;;;5091481;28;19908;-63
2022/01/25 03:31:43;;;;;;;;;;;16.60;45.60;;;;;;5074828;28;19912;-63
2022/01/25 03:34:08;;;;;;;;;;;16.60;45.70;;;;;;5091521;28;19912;-63
2022/01/25 03:36:34;;;;;;;;;;;16.60;45.80;;;;;;5092718;28;19935;-63
2022/01/25 03:38:59;;;;;;;;;;;16.50;45.80;;;;;;5092394;28;20332;-63
2022/01/25 03:41:26;;;;;;;;;;;16.50;45.80;;;;;;5092733;28;19961;-63
2022/01/25 03:43:54;;;;;;;;;;;16.50;45.90;;;;;;5092856;28;19912;-64
2022/01/25 03:46:28;;;;;;;;;;;16.40;45.90;;;;;;5091506;28;19912;-64
2022/01/25 03:51:37;;;;;;;;;;;16.50;46.10;;;;;;5092748;28;19916;-64
2022/01/25 03:54:03;;;;;;;;;;;16.40;46.00;;;;;;5090905;28;19908;-64
2022/01/25 03:56:28;;;;;;;;;;;16.30;46.00;;;;;;5091467;28;19960;-64
2022/01/25 03:58:54;;;;;;;;;;;16.30;46.00;;;;;;5092757;28;19920;-64
2022/01/25 04:01:19;;;;;;;;;;;16.30;46.00;;;;;;5107970;28;19962;-64
2022/01/25 04:03:56;;;;;;;;;;;16.30;46.00;;;;;;5092295;28;19912;-64
2022/01/25 04:06:22;;;;;;;;;;;16.40;46.10;;;;;;5099144;28;19994;-64
2022/01/25 04:08:47;;;;;;;;;;;16.40;46.00;;;;;;5091841;28;20034;-64
2022/01/25 04:11:13;;;;;;;;;;;16.30;45.90;;;;;;5092437;28;19915;-64
2022/01/25 04:13:38;;;;;;;;;;;16.30;46.00;;;;;;5090968;28;20003;-64
2022/01/25 04:16:11;;;;;;;;;;;16.30;46.00;;;;;;5091008;28;19920;-64
2022/01/25 04:18:52;;;;;;;;;;;16.30;46.00;;;;;;5097657;28;19915;-64
2022/01/25 04:21:41;;;;;;;;;;;16.40;46.10;;;;;;5092304;28;19920;-63
2022/01/25 04:25:14;;;;;;;;;;;16.40;46.10;;;;;;5092070;28;19908;-63
2022/01/25 04:27:02;;;;;;;;;;;16.40;46.00;;;;;;5074193;28;20046;-63
2022/01/25 04:29:27;;;;;;;;;;;16.40;45.90;;;;;;5090822;28;19954;-63
2022/01/25 04:31:53;;;;;;;;;;;16.40;45.90;;;;;;5092019;28;20395;-63
2022/01/25 04:53:20;;;;;;;;;;;16.40;45.80;;;;;;5053823;28;20391;-64
2022/01/25 04:58:23;;;;;;;;;;;16.40;45.90;;;;;;5091999;28;20333;-64
2022/01/25 05:00:49;;;;;;;;;;;16.40;45.90;;;;;;5125087;28;19914;-64
2022/01/25 05:03:22;;;;;;;;;;;16.40;45.90;;;;;;5090720;28;19912;-64
2022/01/25 05:05:59;;;;;;;;;;;16.40;46.00;;;;;;5098511;28;19930;-64
2022/01/25 05:16:28;;;;;;;;;;;16.30;46.00;;;;;;5095911;28;20014;-63
2022/01/25 05:19:03;;;;;;;;;;;16.30;46.00;;;;;;5093805;28;19975;-64
2022/01/25 05:24:13;;;;;;;;;;;16.30;46.00;;;;;;5094846;28;19931;-64
2022/01/25 05:26:38;;;;;;;;;;;16.30;46.00;;;;;;5095118;28;20372;-64
2022/01/25 05:29:04;;;;;;;;;;;16.30;46.00;;;;;;5095423;28;19917;-64
2022/01/25 05:31:29;;;;;;;;;;;16.40;46.00;;;;;;5095127;28;19908;-63
2022/01/25 05:33:55;;;;;;;;;;;16.40;46.00;;;;;;5094985;28;19923;-64
2022/01/25 05:36:20;;;;;;;;;;;16.30;45.90;;;;;;5094906;28;19922;-64
2022/01/25 05:38:47;;;;;;;;;;;16.30;45.90;;;;;;5093311;28;19983;-64
2022/01/25 05:41:13;;;;;;;;;;;16.30;45.90;;;;;;5094956;28;20349;-64
2022/01/25 05:46:33;;;;;;;;;;;16.30;45.90;;;;;;5093888;28;20300;-64
2022/01/25 05:48:59;;;;;;;;;;;16.30;45.90;;;;;;5101518;28;19915;-64
2022/01/25 05:51:24;;;;;;;;;;;16.40;46.60;;;;;;5127370;27;20003;-63
2022/01/25 05:53:49;;;;;;;;;;;16.40;45.90;;;;;;5093915;28;19912;-63
2022/01/25 05:56:16;;;;;;;;;;;16.40;45.90;;;;;;5127396;27;19916;-63
2022/01/25 05:58:42;;;;;;;;;;;16.40;45.80;;;;;;5094468;28;19908;-63
2022/01/25 06:01:07;;;;;;;;;;;16.40;45.80;;;;;;5094606;28;19915;-64
2022/01/25 06:03:33;;;;;;;;;;;16.40;45.80;;;;;;5127452;27;19916;-64
2022/01/25 06:05:58;;;;;;;;;;;16.40;45.80;;;;;;5094530;28;19920;-64
2022/01/25 06:08:23;;;;;;;;;;;16.40;45.80;;;;;;5094279;28;19916;-64
2022/01/25 06:10:49;;;;;;;;;;;16.40;45.80;;;;;;5093942;28;19994;-64
2022/01/25 06:13:14;;;;;;;;;;;16.50;45.90;;;;;;5094236;28;19920;-64
2022/01/25 06:15:40;;;;;;;;;;;16.40;45.90;;;;;;5127000;27;19913;-64
2022/01/25 06:18:05;;;;;;;;;;;16.40;45.90;;;;;;5094351;28;19914;-64
2022/01/25 06:20:32;;;;;;;;;;;16.40;45.90;;;;;;5126658;27;19924;-64
2022/01/25 06:22:58;;;;;;;;;;;16.40;45.90;;;;;;5093039;28;20001;-64
2022/01/25 06:25:23;;;;;;;;;;;16.40;45.90;;;;;;5093566;28;20526;-63
2022/01/25 06:27:49;;;;;;;;;;;16.30;45.80;;;;;;5092804;28;20368;-64
2022/01/25 06:30:15;;;;;;;;;;;16.30;45.90;;;;;;5094002;28;20312;-64
2022/01/25 06:32:41;;;;;;;;;;;16.30;45.90;;;;;;5092867;28;19908;-64
2022/01/25 06:35:07;;;;;;;;;;;16.30;45.90;;;;;;5092670;28;19957;-64
2022/01/25 06:37:33;;;;;;;;;;;16.30;45.90;;;;;;5093705;28;19908;-64
2022/01/25 06:39:58;;;;;;;;;;;16.30;46.00;;;;;;5093280;28;19908;-64
2022/01/25 06:42:27;;;;;;;;;;;16.30;45.90;;;;;;5093682;28;20476;-64
2022/01/25 06:44:56;;;;;;;;;;;16.30;46.00;;;;;;5075705;28;20007;-64
2022/01/25 06:47:21;;;;;;;;;;;16.30;46.00;;;;;;5092582;28;19915;-64
2022/01/25 06:49:47;;;;;;;;;;;16.30;46.00;;;;;;5093382;28;19908;-64
2022/01/25 06:52:12;;;;;;;;;;;16.30;46.00;;;;;;5093560;28;19908;-64
2022/01/25 06:54:38;;;;;;;;;;;16.30;46.00;;;;;;5091808;28;19931;-64
2022/01/25 06:57:03;;;;;;;;;;;16.30;46.00;;;;;;5093245;28;19912;-64
2022/01/25 06:59:28;;;;;;;;;;;16.30;46.00;;;;;;5093542;28;19923;-64
2022/01/25 07:01:54;;;;;;;;;;;16.30;46.00;;;;;;5093412;28;20424;-64
2022/01/25 07:04:19;;;;;;;;;;;16.30;45.90;;;;;;5091898;28;20330;-64
2022/01/25 07:06:45;;;;;;;;;;;16.30;46.00;;;;;;5091947;28;20291;-64
2022/01/25 07:09:10;;;;;;;;;;;16.30;45.90;;;;;;5092688;28;19955;-64
2022/01/25 07:11:36;;;;;;;;;;;16.30;45.90;;;;;;5093324;28;19999;-64
2022/01/25 07:14:01;;;;;;;;;;;16.30;45.90;;;;;;5092983;28;19912;-64
2022/01/25 07:16:27;;;;;;;;;;;16.30;45.90;;;;;;5093372;28;19966;-64
2022/01/25 07:18:52;;;;;;;;;;;16.30;45.90;;;;;;5092682;28;20423;-64
2022/01/25 07:21:18;;;;;;;;;;;16.30;45.80;;;;;;5091679;28;19916;-64
2022/01/25 07:23:43;;;;;;;;;;;16.30;45.90;;;;;;5092504;28;20364;-63
2022/01/25 07:26:09;;;;;;;;;;;16.30;45.90;;;;;;5092906;28;20364;-63
2022/01/25 07:28:36;;;;;;;;;;;16.30;45.90;;;;;;5091346;28;19917;-63
2022/01/25 07:31:02;;;;;;;;;;;16.30;45.90;;;;;;5093153;28;19951;-64
2022/01/25 07:33:27;;;;;;;;;;;16.30;45.80;;;;;;5091271;28;19955;-64
2022/01/25 07:35:52;;;;;;;;;;;16.30;45.80;;;;;;5124992;27;19912;-64
2022/01/25 07:38:18;;;;;;;;;;;16.30;45.80;;;;;;5092560;28;19999;-63
2022/01/25 07:40:44;;;;;;;;;;;16.30;45.90;;;;;;5090915;28;20373;-64
2022/01/25 07:43:09;;;;;;;;;;;16.30;45.90;;;;;;5091505;28;19977;-64
2022/01/25 07:45:36;;;;;;;;;;;16.30;45.90;;;;;;5091272;28;19912;-64
2022/01/25 07:48:02;;;;;;;;;;;16.30;45.80;;;;;;5092665;28;19909;-63
2022/01/25 07:50:28;;;;;;;;;;;16.30;45.80;;;;;;5091238;28;20662;-64
2022/01/25 07:52:54;;;;;;;;;;;16.30;45.80;;;;;;5091161;28;20332;-64
2022/01/25 07:55:19;;;;;;;;;;;16.30;45.80;;;;;;5091707;28;20287;-64
2022/01/25 07:57:45;;;;;;;;;;;16.30;45.80;;;;;;5091202;28;19908;-64
2022/01/25 08:00:11;;;;;;;;;;;16.30;45.80;;;;;;5092062;28;19908;-64
2022/01/25 08:02:37;;;;;;;;;;;16.30;45.80;;;;;;5073971;28;20337;-64
2022/01/25 08:05:03;;;;;;;;;;;16.30;45.80;;;;;;5090929;28;20365;-64
2022/01/25 08:07:28;;;;;;;;;;;16.30;45.90;;;;;;5092596;28;19957;-64
2022/01/25 08:09:54;;;;;;;;;;;16.30;46.00;;;;;;5124675;27;19912;-64
2022/01/25 08:12:19;;;;;;;;;;;16.30;45.90;;;;;;5092197;28;19915;-64
2022/01/25 08:14:45;;;;;;;;;;;16.30;45.90;;;;;;5092061;28;19913;-64
2022/01/25 08:17:11;;;;;;;;;;;16.30;46.00;;;;;;5092192;28;19920;-64
2022/01/25 08:19:36;;;;;;;;;;;16.30;45.90;;;;;;5091795;28;19942;-64
2022/01/25 08:22:03;;;;;;;;;;;16.30;46.00;;;;;;5091787;28;21303;-63
2022/01/25 08:24:29;;;;;;;;;;;16.30;46.00;;;;;;5091673;28;20002;-63
2022/01/25 08:26:55;;;;;;;;;;;16.30;46.00;;;;;;5090867;28;19935;-64
2022/01/25 08:29:20;;;;;;;;;;;16.30;46.00;;;;;;5090761;28;20392;-64
2022/01/25 08:31:46;;;;;;;;;;;16.20;45.90;;;;;;5092125;28;19935;-64
2022/01/25 08:34:11;;;;;;;;;;;16.30;46.00;;;;;;5091810;28;20364;-64
2022/01/25 08:36:37;;;;;;;;;;;16.20;46.00;;;;;;5107536;28;20260;-64
2022/01/25 08:39:03;;;;;;;;;;;16.20;46.00;;;;;;5091642;28;19955;-64
2022/01/25 08:41:28;;;;;;;;;;;16.20;46.10;;;;;;5092000;28;19908;-64
2022/01/25 08:43:54;;;;;;;;;;;16.20;46.00;;;;;;5092235;28;19916;-64
2022/01/25 08:46:19;;;;;;;;;;;16.20;46.10;;;;;;5092458;28;19912;-64
2022/01/25 08:48:48;;;;;;;;;;;16.20;46.00;;;;;;5095988;28;19923;-64
2022/01/25 08:51:13;;;;;;;;;;;16.20;46.00;;;;;;5095686;28;20395;-64
2022/01/25 08:53:39;;;;;;;;;;;16.30;46.00;;;;;;5094222;28;19912;-64
2022/01/25 08:56:05;;;;;;;;;;;16.20;45.90;;;;;;5095750;28;20372;-64
2022/01/25 08:58:30;;;;;;;;;;;16.20;45.90;;;;;;5094391;28;20283;-64
2022/01/25 09:00:56;;;;;;;;;;;16.30;46.00;;;;;;5077618;28;19912;-63
2022/01/25 09:03:21;;;;;;;;;;;16.30;46.00;;;;;;5095565;28;19912;-64
2022/01/25 09:05:47;;;;;;;;;;;16.20;45.90;;;;;;5095561;28;19951;-64
2022/01/25 09:08:19;;;;;;;;;;;16.30;46.00;;;;;;5094153;28;19969;-64
2022/01/25 09:10:44;;;;;;;;;;;16.20;45.90;;;;;;5101831;28;20015;-64
2022/01/25 09:13:10;;;;;;;;;;;16.20;45.90;;;;;;5094091;28;20348;-64
2022/01/25 09:15:35;;;;;;;;;;;16.20;46.00;;;;;;5095245;28;19936;-64
2022/01/25 09:18:01;;;;;;;;;;;16.30;46.00;;;;;;5095385;28;19908;-64
2022/01/25 09:20:26;;;;;;;;;;;16.30;46.00;;;;;;5095146;28;19926;-64
2022/01/25 09:22:52;;;;;;;;;;;16.30;46.00;;;;;;5094239;28;19912;-64
2022/01/25 09:25:18;;;;;;;;;;;16.20;46.00;;;;;;5094752;28;20460;-64
2022/01/25 09:27:44;;;;;;;;;;;16.20;46.00;;;;;;5095348;28;20328;-64
2022/01/25 09:30:10;;;;;;;;;;;16.20;46.00;;;;;;5095021;28;20057;-64
2022/01/25 09:32:35;;;;;;;;;;;16.30;46.10;;;;;;5095275;28;19908;-64
2022/01/25 09:35:00;;;;;;;;;;;16.30;46.00;;;;;;5093661;28;19951;-64
2022/01/25 09:37:26;;;;;;;;;;;16.30;46.60;;;;;;5095058;28;19912;-64
2022/01/25 09:39:51;;;;;;;;;;;16.30;45.90;;;;;;5094533;28;19912;-63
2022/01/25 09:42:17;;;;;;;;;;;16.30;46.00;;;;;;5094946;28;19958;-63
2022/01/25 09:44:42;;;;;;;;;;;16.30;46.00;;;;;;5127548;27;19958;-63
2022/01/25 09:47:09;;;;;;;;;;;16.20;45.90;;;;;;5094845;28;19908;-64
2022/01/25 09:49:35;;;;;;;;;;;16.20;46.00;;;;;;5093601;28;20021;-64
2022/01/25 09:52:00;;;;;;;;;;;16.20;46.00;;;;;;5094541;28;19916;-64
2022/01/25 09:54:26;;;;;;;;;;;16.20;46.00;;;;;;5094010;28;20347;-64
2022/01/25 09:56:51;;;;;;;;;;;16.20;46.00;;;;;;5093074;28;19919;-64
2022/01/25 09:59:17;;;;;;;;;;;16.20;45.90;;;;;;5094151;28;20318;-64
2022/01/25 10:01:42;;;;;;;;;;;16.20;45.90;;;;;;5094567;28;19999;-64
2022/01/25 10:04:27;;;;;;;;;;;16.30;46.00;;;;;;5094313;28;20319;-64
2022/01/25 10:06:53;;;;;;;;;;;16.30;46.00;;;;;;5094533;28;19916;-64
2022/01/25 10:09:19;;;;;;;;;;;16.20;46.00;;;;;;5092862;28;19908;-64
2022/01/25 10:11:45;;;;;;;;;;;16.20;46.10;;;;;;5094631;28;20370;-64
2022/01/25 10:14:10;;;;;;;;;;;16.20;46.10;;;;;;5093007;28;19908;-64
2022/01/25 10:16:37;;;;;;;;;;;16.20;46.10;;;;;;5094187;28;19950;-64
2022/01/25 10:19:04;;;;;;;;;;;16.20;46.00;;;;;;5094179;28;19916;-64
2022/01/25 10:21:33;;;;;;;;;;;16.20;46.00;;;;;;5094162;28;20003;-64
2022/01/25 10:23:59;;;;;;;;;;;16.20;46.00;;;;;;5075437;28;20291;-64
2022/01/25 10:26:25;;;;;;;;;;;16.20;46.00;;;;;;5092762;28;20438;-63
2022/01/25 10:28:51;;;;;;;;;;;16.20;46.10;;;;;;5093875;28;20026;-64
2022/01/25 10:31:16;;;;;;;;;;;16.20;46.10;;;;;;5092633;28;19908;-64
2022/01/25 10:33:51;;;;;;;;;;;16.20;46.10;;;;;;5093778;28;19916;-62
2022/01/25 10:36:17;;;;;;;;;;;16.20;46.10;;;;;;5100627;28;20367;-63
2022/01/25 10:38:43;;;;;;;;;;;16.20;46.10;;;;;;5093404;28;19915;-64
2022/01/25 10:41:10;;;;;;;;;;;16.20;46.10;;;;;;5092484;28;20280;-64
2022/01/25 10:43:36;;;;;;;;;;;16.20;46.10;;;;;;5092438;28;19923;-64
2022/01/25 10:46:08;;;;;;;;;;;16.30;46.10;;;;;;5093726;28;19908;-64
2022/01/25 10:48:34;;;;;;;;;;;16.20;46.10;;;;;;5093820;28;20626;-64
2022/01/25 10:51:03;;;;;;;;;;;16.20;46.00;;;;;;5126431;27;19959;-64
2022/01/25 10:53:29;;;;;;;;;;;16.20;46.00;;;;;;5093133;28;19915;-64
2022/01/25 10:55:54;;;;;;;;;;;16.30;46.70;;;;;;5093014;28;19923;-63
2022/01/25 10:58:19;;;;;;;;;;;16.20;46.00;;;;;;5108870;28;20027;-63
2022/01/25 11:00:46;;;;;;;;;;;16.20;46.00;;;;;;5093170;28;19912;-63
2022/01/25 11:03:12;;;;;;;;;;;16.30;46.10;;;;;;5091917;28;19908;-64
2022/01/25 11:05:38;;;;;;;;;;;16.20;46.00;;;;;;5091505;28;19915;-64
2022/01/25 11:08:13;;;;;;;;;;;16.20;46.10;;;;;;5091834;28;19909;-64
2022/01/25 11:10:49;;;;;;;;;;;16.20;46.10;;;;;;5090778;28;20291;-64
2022/01/25 11:13:33;;;;;;;;;;;16.20;46.10;;;;;;5091804;28;19918;-64
2022/01/25 11:16:00;;;;;;;;;;;16.20;46.10;;;;;;5099785;28;19998;-63
2022/01/25 11:18:25;;;;;;;;;;;16.20;46.10;;;;;;5092812;28;19912;-63
2022/01/25 11:20:51;;;;;;;;;;;16.20;46.10;;;;;;5092760;28;19927;-63
2022/01/25 11:23:19;;;;;;;;;;;16.20;46.20;;;;;;5092893;28;20404;-63
2022/01/25 11:25:45;;;;;;;;;;;16.20;46.10;;;;;;5091217;28;19938;-63
2022/01/25 11:28:11;;;;;;;;;;;16.20;46.10;;;;;;5091587;28;19908;-63
2022/01/25 11:30:38;;;;;;;;;;;16.20;46.20;;;;;;5092700;28;19908;-63
2022/01/25 11:33:05;;;;;;;;;;;16.20;46.30;;;;;;5091688;28;19908;-63
2022/01/25 11:35:30;;;;;;;;;;;16.20;46.20;;;;;;5091406;28;20315;-63
2022/01/25 11:37:56;;;;;;;;;;;16.20;46.30;;;;;;5091469;28;19915;-64
2022/01/25 11:40:28;;;;;;;;;;;16.20;46.30;;;;;;5124874;27;20021;-63
2022/01/25 11:42:55;;;;;;;;;;;16.20;46.30;;;;;;5092612;28;19915;-62
2022/01/25 11:45:21;;;;;;;;;;;16.20;46.30;;;;;;5092509;28;19995;-63
2022/01/25 11:47:47;;;;;;;;;;;16.20;46.30;;;;;;5092769;28;19908;-63
2022/01/25 11:50:13;;;;;;;;;;;16.20;46.30;;;;;;5092404;28;19915;-63
2022/01/25 11:52:48;;;;;;;;;;;16.20;46.40;;;;;;5092551;28;20006;-63
2022/01/25 11:55:16;;;;;;;;;;;16.20;46.40;;;;;;5091821;28;19909;-63
2022/01/25 11:58:03;;;;;;;;;;;16.20;46.30;;;;;;5092489;28;19957;-63
2022/01/25 12:01:02;;;;;;;;;;;16.20;46.30;;;;;;5091411;28;19909;-63
2022/01/25 12:03:30;;;;;;;;;;;16.20;46.20;;;;;;5069222;28;19955;-64
2022/01/25 12:06:12;;;;;;;;;;;16.20;46.20;;;;;;5091026;28;20372;-63
2022/01/25 12:11:23;;;;;;;;;;;16.20;46.30;;;;;;5091430;28;19909;-63
2022/01/25 12:13:54;;;;;;;;;;;16.20;46.30;;;;;;5092067;28;19931;-63
2022/01/25 12:16:30;;;;;;;;;;;16.20;46.30;;;;;;5090663;28;19923;-62
2022/01/25 12:18:57;;;;;;;;;;;16.20;46.30;;;;;;5096918;28;19912;-63
2022/01/25 12:21:41;;;;;;;;;;;16.20;46.30;;;;;;5094984;28;19916;-63
2022/01/25 12:24:20;;;;;;;;;;;16.20;46.30;;;;;;5096057;28;19999;-63
2022/01/25 12:26:54;;;;;;;;;;;16.20;46.30;;;;;;5096413;28;19908;-63
2022/01/25 12:29:33;;;;;;;;;;;16.20;46.30;;;;;;5094880;28;19912;-63
2022/01/25 12:32:17;;;;;;;;;;;16.20;46.30;;;;;;5096387;28;20406;-63
2022/01/25 12:35:01;;;;;;;;;;;16.20;46.30;;;;;;5096088;28;19912;-63
2022/01/25 12:37:54;;;;;;;;;;;16.20;46.20;;;;;;5096080;28;19967;-63
2022/01/25 12:40:26;;;;;;;;;;;16.20;46.20;;;;;;5091124;28;20325;-63
2022/01/25 12:42:51;;;;;;;;;;;16.20;46.30;;;;;;5094784;28;19908;-63
2022/01/25 12:45:17;;;;;;;;;;;16.20;46.30;;;;;;5095871;28;19915;-63
2022/01/25 12:47:53;;;;;;;;;;;16.20;46.30;;;;;;5096004;28;19973;-63
2022/01/25 12:50:18;;;;;;;;;;;16.20;46.30;;;;;;5095923;28;19908;-63
2022/01/25 12:52:47;;;;;;;;;;;16.20;46.30;;;;;;5096027;28;20386;-63
2022/01/25 12:55:13;;;;;;;;;;;16.20;46.30;;;;;;5094145;28;19908;-63
2022/01/25 12:57:45;;;;;;;;;;;16.20;46.30;;;;;;5095694;28;20337;-63
2022/01/25 13:00:11;;;;;;;;;;;16.20;46.30;;;;;;5095682;28;19914;-63
2022/01/25 13:02:36;;;;;;;;;;;16.20;46.30;;;;;;5095606;28;20346;-63
2022/01/25 13:05:03;;;;;;;;;;;16.20;46.30;;;;;;5128278;27;19953;-63
2022/01/25 13:07:28;;;;;;;;;;;16.20;46.20;;;;;;5094134;28;19908;-63
2022/01/25 13:09:55;;;;;;;;;;;16.20;46.30;;;;;;5095012;28;20364;-63
2022/01/25 13:12:30;;;;;;;;;;;16.20;46.20;;;;;;5095603;28;19961;-63
2022/01/25 13:15:26;;;;;;;;;;;16.30;46.30;;;;;;5095494;28;19920;-63
2022/01/25 13:17:41;;;;;;;;;;;16.20;46.30;;;;;;5097770;27;19916;-63
2022/01/25 13:20:06;;;;;;;;;;;16.20;46.30;;;;;;5093831;28;20360;-63
2022/01/25 13:22:39;;;;;;;;;;;16.20;46.30;;;;;;5095164;28;19969;-63
2022/01/25 13:27:51;;;;;;;;;;;16.30;46.30;;;;;;5094187;28;20002;-63
2022/01/25 13:33:01;;;;;;;;;;;16.20;46.30;;;;;;5093258;28;19916;-63
2022/01/25 13:35:30;;;;;;;;;;;16.20;46.40;;;;;;5094792;28;19908;-63
2022/01/25 13:38:17;;;;;;;;;;;16.20;46.40;;;;;;5095157;28;19942;-63
2022/01/25 13:41:00;;;;;;;;;;;16.20;46.40;;;;;;5094502;28;19908;-63
2022/01/25 13:46:17;;;;;;;;;;;16.20;46.40;;;;;;5093748;28;19915;-63
2022/01/25 13:48:43;;;;;;;;;;;16.20;46.40;;;;;;5094747;28;19956;-63
2022/01/25 13:51:12;;;;;;;;;;;16.20;46.40;;;;;;5093556;28;19974;-63
2022/01/25 13:53:38;;;;;;;;;;;16.20;46.40;;;;;;5092874;28;19943;-63
2022/01/25 13:56:04;;;;;;;;;;;16.20;46.40;;;;;;5094572;28;19955;-63
2022/01/25 13:58:34;;;;;;;;;;;16.30;46.40;;;;;;5093212;28;20006;-63
2022/01/25 14:01:00;;;;;;;;;;;16.30;46.40;;;;;;5093697;28;19912;-63
2022/01/25 14:03:26;;;;;;;;;;;16.30;46.30;;;;;;5094426;28;20376;-63
2022/01/25 14:05:52;;;;;;;;;;;16.30;46.40;;;;;;5094364;28;20345;-63
2022/01/25 14:08:30;;;;;;;;;;;16.30;46.40;;;;;;5093214;28;19943;-63
2022/01/25 14:10:59;;;;;;;;;;;16.30;46.40;;;;;;5099934;28;19969;-63
2022/01/25 14:21:55;;;;;;;;;;;16.30;46.40;;;;;;5093110;28;19919;-63
2022/01/25 14:24:28;;;;;;;;;;;16.30;46.40;;;;;;5100532;28;20375;-63
2022/01/25 14:26:53;;;;;;;;;;;16.30;46.40;;;;;;5092757;28;19908;-63
2022/01/25 14:29:22;;;;;;;;;;;16.30;46.40;;;;;;5092661;28;19999;-63
2022/01/25 14:31:47;;;;;;;;;;;16.30;46.40;;;;;;5092842;28;20470;-63
2022/01/25 14:34:13;;;;;;;;;;;16.20;46.40;;;;;;5093825;28;19912;-63
2022/01/25 14:36:40;;;;;;;;;;;16.30;46.40;;;;;;5092650;28;19951;-63
2022/01/25 14:39:06;;;;;;;;;;;16.30;46.40;;;;;;5092102;28;19912;-64
2022/01/25 14:41:32;;;;;;;;;;;16.30;46.40;;;;;;5092411;28;19976;-64
2022/01/25 14:44:00;;;;;;;;;;;16.30;46.40;;;;;;5091304;28;19915;-64
2022/01/25 14:46:34;;;;;;;;;;;16.30;46.40;;;;;;5093537;28;19947;-63
2022/01/25 14:49:06;;;;;;;;;;;16.30;46.40;;;;;;5092123;28;19912;-63
2022/01/25 14:51:36;;;;;;;;;;;16.20;46.40;;;;;;5092341;28;19908;-63
2022/01/25 14:54:02;;;;;;;;;;;16.30;46.40;;;;;;5074863;28;19915;-63
2022/01/25 14:56:31;;;;;;;;;;;16.30;46.40;;;;;;5091977;28;19912;-63
2022/01/25 15:01:22;;;;;;;;;;;16.30;46.40;;;;;;5092067;28;19908;-63
2022/01/25 15:03:49;;;;;;;;;;;16.30;46.40;;;;;;5093215;28;19958;-64
2022/01/25 15:06:16;;;;;;;;;;;16.30;46.40;;;;;;5092182;28;19977;-64
2022/01/25 15:08:48;;;;;;;;;;;16.30;46.40;;;;;;5091651;28;20044;-63
2022/01/25 15:11:13;;;;;;;;;;;16.30;46.40;;;;;;5093388;28;19908;-63
2022/01/25 15:13:40;;;;;;;;;;;16.30;46.50;;;;;;5093196;28;19912;-63
2022/01/25 15:16:05;;;;;;;;;;;16.30;46.50;;;;;;5093184;28;19916;-63
2022/01/25 15:18:31;;;;;;;;;;;16.20;46.40;;;;;;5093016;28;19908;-63
2022/01/25 15:20:58;;;;;;;;;;;16.20;46.40;;;;;;5093617;28;20285;-63
2022/01/25 15:23:24;;;;;;;;;;;16.30;46.70;;;;;;5091974;28;19915;-63
2022/01/25 15:25:54;;;;;;;;;;;16.30;46.50;;;;;;5091477;28;19916;-63
2022/01/25 15:28:20;;;;;;;;;;;16.30;46.40;;;;;;5092051;28;19908;-63
2022/01/25 15:30:45;;;;;;;;;;;16.30;46.40;;;;;;5092858;28;19919;-63
2022/01/25 15:33:11;;;;;;;;;;;16.30;46.40;;;;;;5125800;27;19908;-63
2022/01/25 15:35:37;;;;;;;;;;;16.30;46.50;;;;;;5092732;28;19923;-63
2022/01/25 15:38:02;;;;;;;;;;;16.30;46.50;;;;;;5092935;28;19912;-63
2022/01/25 15:40:28;;;;;;;;;;;16.20;46.40;;;;;;5125056;27;19908;-63
2022/01/25 15:42:53;;;;;;;;;;;16.20;46.50;;;;;;5091551;28;20308;-63
2022/01/25 15:45:28;;;;;;;;;;;16.30;46.60;;;;;;5092594;28;19911;-63
2022/01/25 15:47:54;;;;;;;;;;;16.20;46.50;;;;;;5091694;28;19915;-63
2022/01/25 15:50:21;;;;;;;;;;;16.20;46.50;;;;;;5092566;28;19990;-63
2022/01/25 15:52:47;;;;;;;;;;;16.20;46.60;;;;;;5092760;28;20374;-63
2022/01/25 15:55:12;;;;;;;;;;;16.20;46.60;;;;;;5124335;27;19989;-62
2022/01/25 15:57:37;;;;;;;;;;;16.20;46.60;;;;;;5092464;28;19913;-62
2022/01/25 16:00:04;;;;;;;;;;;16.20;46.60;;;;;;5091152;28;19908;-63
2022/01/25 16:02:29;;;;;;;;;;;16.20;46.50;;;;;;5092509;28;19912;-63
2022/01/25 16:04:55;;;;;;;;;;;16.30;46.60;;;;;;5092462;28;19978;-63
2022/01/25 16:07:20;;;;;;;;;;;16.30;46.50;;;;;;5091133;28;19919;-63
2022/01/25 16:09:48;;;;;;;;;;;16.30;46.60;;;;;;5124699;27;19909;-63
2022/01/25 16:12:14;;;;;;;;;;;16.30;46.60;;;;;;5092491;28;20321;-63
2022/01/25 16:14:39;;;;;;;;;;;16.30;46.60;;;;;;5107874;28;19927;-63
2022/01/25 16:17:05;;;;;;;;;;;16.30;46.50;;;;;;5091156;28;19951;-63
2022/01/25 16:19:31;;;;;;;;;;;16.30;46.40;;;;;;5092018;28;20391;-63
2022/01/25 16:21:56;;;;;;;;;;;16.30;46.40;;;;;;5074110;28;20326;-63